Terminal Aerodrome Forecast
Issued by NWS

Home | Current Version | Previous Version | Text Only | Print | Product List | Glossary Off
Versions: 1 2 3 4 5 6 7 8 9 10 11 12 13 14

000
FTUS43 KMPX 201700
TAFAXN
TAF
KAXN 201739Z 2018/2118 13007KT P6SM SCT250
     FM210500 14007KT P6SM SCT100 BKN250
     FM210800 23006KT P6SM BKN100
     FM211100 30009KT P6SM SCT100
     FM211500 31017G24KT P6SM SKC=

USA.gov is the U.S. government's official web portal to all federal, state and local government web resources and services.